createdAt,value
2018-07-01T00:00:42.017Z,101183.14
2018-07-01T00:03:10.029Z,101188.23
2018-07-01T00:05:38.040Z,101191.62
2018-07-01T00:08:06.091Z,101187.88
2018-07-01T00:10:34.095Z,101187.14
2018-07-01T00:13:02.109Z,101187.39
2018-07-01T00:15:30.182Z,101192.13
2018-07-01T00:17:58.427Z,101190.42
2018-07-01T00:20:26.688Z,101188.09
2018-07-01T00:22:55.025Z,101195.13
2018-07-01T00:25:23.020Z,101192.72
2018-07-01T00:27:51.200Z,101192.12
2018-07-01T00:30:19.228Z,101197.06
2018-07-01T00:32:47.309Z,101194.41
2018-07-01T00:35:15.341Z,101195.98
2018-07-01T00:37:43.344Z,101190.89
2018-07-01T00:40:11.457Z,101192.23
2018-07-01T00:42:39.500Z,101194.66
2018-07-01T00:45:07.964Z,101193.31
2018-07-01T00:47:35.970Z,101191.88
2018-07-01T00:50:05.054Z,101194.16
2018-07-01T00:52:33.072Z,101188.46
2018-07-01T00:55:01.058Z,101196.36
2018-07-01T00:57:29.060Z,101191.03
2018-07-01T00:59:57.144Z,101200.11
2018-07-01T01:02:25.148Z,101190.53
2018-07-01T01:04:53.229Z,101198.30
2018-07-01T01:07:21.272Z,101193.31
2018-07-01T01:09:49.304Z,101191.98
2018-07-01T01:12:17.524Z,101194.53
2018-07-01T01:14:45.548Z,101189.56
2018-07-01T01:17:13.565Z,101193.91
2018-07-01T01:19:41.589Z,101196.58
2018-07-01T01:22:09.601Z,101194.90
2018-07-01T01:24:37.597Z,101200.36
2018-07-01T01:27:05.595Z,101197.80
2018-07-01T01:29:33.605Z,101196.13
2018-07-01T01:32:02.206Z,101192.94
2018-07-01T01:34:30.367Z,101186.02
2018-07-01T01:36:58.574Z,101193.42
2018-07-01T01:39:33.596Z,101196.58
2018-07-01T01:42:07.068Z,101195.49
2018-07-01T01:44:38.977Z,101201.28
2018-07-01T01:47:11.616Z,101200.20
2018-07-01T01:49:42.812Z,101195.45
2018-07-01T01:52:15.230Z,101195.59
2018-07-01T01:54:53.832Z,101194.72
2018-07-01T01:57:27.417Z,101192.30
2018-07-01T02:00:03.187Z,101194.61
2018-07-01T02:02:36.564Z,101192.20
2018-07-01T02:05:08.689Z,101193.98
2018-07-01T02:07:44.207Z,101197.58
2018-07-01T02:10:12.596Z,101193.08
2018-07-01T02:12:40.568Z,101199.63
2018-07-01T02:15:11.701Z,101207.86
2018-07-01T02:17:42.189Z,101205.20
2018-07-01T02:20:11.045Z,101210.06
2018-07-01T02:22:43.909Z,101211.12
2018-07-01T02:25:15.345Z,101211.95
2018-07-01T02:27:43.705Z,101211.38
2018-07-01T02:30:11.717Z,101218.52
2018-07-01T02:32:39.801Z,101219.84
2018-07-01T02:35:07.875Z,101220.84
2018-07-01T02:37:36.032Z,101220.55
2018-07-01T02:40:04.643Z,101224.85
2018-07-01T02:42:32.884Z,101233.20
2018-07-01T02:45:00.888Z,101237.19
2018-07-01T02:47:28.958Z,101232.91
2018-07-01T02:49:57.118Z,101244.38
2018-07-01T02:52:25.303Z,101241.30
2018-07-01T02:54:53.453Z,101239.52
2018-07-01T02:57:21.676Z,101244.05
2018-07-01T02:59:49.889Z,101241.47
2018-07-01T03:02:17.904Z,101242.88
2018-07-01T03:04:45.901Z,101242.50
2018-07-01T03:07:13.913Z,101251.44
2018-07-01T03:09:41.909Z,101253.28
2018-07-01T03:12:09.921Z,101245.34
2018-07-01T03:14:37.912Z,101244.26
2018-07-01T03:19:45.425Z,101260.77
2018-07-01T03:22:13.445Z,101258.84
2018-07-01T03:24:41.429Z,101256.91
2018-07-01T03:27:09.406Z,101262.37
2018-07-01T03:29:37.404Z,101259.94
2018-07-01T03:32:05.392Z,101270.87
2018-07-01T03:34:33.420Z,101274.00
2018-07-01T03:37:01.461Z,101273.66
2018-07-01T03:39:29.439Z,101277.28
2018-07-01T03:41:57.436Z,101284.91
2018-07-01T03:44:25.436Z,101280.16
2018-07-01T03:46:53.432Z,101278.32
2018-07-01T03:49:21.477Z,101275.80
2018-07-01T03:51:49.480Z,101278.52
2018-07-01T03:54:17.480Z,101279.27
2018-07-01T03:56:45.485Z,101285.13
2018-07-01T03:59:13.500Z,101287.06
2018-07-01T04:01:41.501Z,101287.23
2018-07-01T04:04:09.475Z,101279.89
2018-07-01T04:06:37.473Z,101286.00
2018-07-01T04:09:08.072Z,101287.27
2018-07-01T04:11:36.362Z,101293.22
2018-07-01T04:14:04.340Z,101299.45
2018-07-01T04:16:32.342Z,101299.73
2018-07-01T04:19:00.323Z,101299.03
2018-07-01T04:21:28.313Z,101302.73
2018-07-01T04:23:56.360Z,101299.26
2018-07-01T04:26:24.429Z,101303.77
2018-07-01T04:28:52.545Z,101302.73
2018-07-01T04:31:20.529Z,101301.76
2018-07-01T04:33:48.581Z,101306.66
2018-07-01T04:36:16.595Z,101303.69
2018-07-01T04:38:44.709Z,101305.59
2018-07-01T04:41:12.726Z,101296.30
2018-07-01T04:43:40.749Z,101306.80
2018-07-01T04:46:08.796Z,101313.32
2018-07-01T04:48:36.850Z,101310.60
2018-07-01T04:51:04.819Z,101316.92
2018-07-01T04:53:32.938Z,101316.83
2018-07-01T04:56:00.920Z,101317.11
2018-07-01T04:58:28.937Z,101307.72
2018-07-01T05:00:56.908Z,101317.42
2018-07-01T05:03:24.904Z,101328.33
2018-07-01T05:05:52.999Z,101326.25
2018-07-01T05:08:21.342Z,101327.84
2018-07-01T05:10:49.046Z,101337.24
2018-07-01T05:13:17.064Z,101334.91
2018-07-01T05:15:45.113Z,101340.09
2018-07-01T05:18:13.110Z,101338.00
2018-07-01T05:20:41.101Z,101339.35
2018-07-01T05:23:09.089Z,101334.20
2018-07-01T05:25:37.124Z,101330.20
2018-07-01T05:28:05.173Z,101332.46
2018-07-01T05:30:33.165Z,101333.66
2018-07-01T05:33:01.156Z,101331.97
2018-07-01T05:35:29.137Z,101336.89
2018-07-01T05:37:57.142Z,101337.91
2018-07-01T05:40:25.110Z,101339.98
2018-07-01T05:42:53.156Z,101345.16
2018-07-01T05:45:21.165Z,101353.91
2018-07-01T05:47:49.200Z,101352.78
2018-07-01T05:50:17.197Z,101355.47
2018-07-01T05:52:45.352Z,101356.95
2018-07-01T05:55:13.337Z,101353.60
2018-07-01T05:57:41.375Z,101359.02
2018-07-01T06:00:09.400Z,101359.02
2018-07-01T06:02:37.372Z,101355.16
2018-07-01T06:05:05.581Z,101358.86
2018-07-01T06:07:33.606Z,101359.78
2018-07-01T06:10:01.645Z,101367.47
2018-07-01T06:12:29.629Z,101366.39
2018-07-01T06:14:57.617Z,101362.48
2018-07-01T06:17:25.616Z,101361.38
2018-07-01T06:19:53.659Z,101367.28
2018-07-01T06:22:21.668Z,101359.57
2018-07-01T06:24:49.691Z,101362.12
2018-07-01T06:27:17.672Z,101357.59
2018-07-01T06:29:45.927Z,101359.22
2018-07-01T06:32:14.145Z,101359.05
2018-07-01T06:34:42.180Z,101354.13
2018-07-01T06:37:10.181Z,101359.34
2018-07-01T06:39:38.202Z,101356.81
2018-07-01T06:42:06.192Z,101355.39
2018-07-01T06:44:34.256Z,101359.77
2018-07-01T06:47:02.245Z,101357.12
2018-07-01T06:49:30.318Z,101353.11
2018-07-01T06:51:58.317Z,101348.35
2018-07-01T06:54:26.430Z,101359.10
2018-07-01T06:56:54.462Z,101360.50
2018-07-01T06:59:22.466Z,101356.91
2018-07-01T07:01:50.472Z,101365.41
2018-07-01T07:04:18.504Z,101366.61
2018-07-01T07:06:46.538Z,101364.53
2018-07-01T07:09:14.523Z,101368.29
2018-07-01T07:11:42.544Z,101367.28
2018-07-01T07:14:10.562Z,101362.47
2018-07-01T07:16:38.591Z,101366.05
2018-07-01T07:19:06.868Z,101361.23
2018-07-01T07:21:34.898Z,101356.02
2018-07-01T07:24:02.925Z,101366.75
2018-07-01T07:26:30.941Z,101360.54
2018-07-01T07:28:58.969Z,101354.05
2018-07-01T07:31:27.021Z,101355.75
2018-07-01T07:33:55.057Z,101355.04
2018-07-01T07:36:23.110Z,101361.75
2018-07-01T07:38:51.354Z,101354.77
2018-07-01T07:41:19.333Z,101361.55
2018-07-01T07:43:47.343Z,101353.75
2018-07-01T07:46:15.344Z,101350.98
2018-07-01T07:48:43.360Z,101347.31
2018-07-01T07:51:11.396Z,101350.16
2018-07-01T07:53:39.436Z,101349.75
2018-07-01T07:56:07.469Z,101347.52
2018-07-01T07:58:35.496Z,101349.58
2018-07-01T08:01:03.530Z,101356.33
2018-07-01T08:03:31.561Z,101351.27
2018-07-01T08:05:59.640Z,101352.63
2018-07-01T08:08:27.708Z,101343.96
2018-07-01T08:10:55.756Z,101340.27
2018-07-01T08:13:23.827Z,101337.69
2018-07-01T08:15:51.877Z,101338.04
2018-07-01T08:18:19.896Z,101349.23
2018-07-01T08:20:47.942Z,101347.86
2018-07-01T08:23:15.946Z,101346.98
2018-07-01T08:25:43.977Z,101344.20
2018-07-01T08:28:11.963Z,101349.25
2018-07-01T08:30:39.981Z,101343.77
2018-07-01T08:33:07.999Z,101345.31
2018-07-01T08:35:36.080Z,101349.91
2018-07-01T08:38:04.101Z,101342.06
2018-07-01T08:40:32.264Z,101348.06
2018-07-01T08:43:00.270Z,101344.09
2018-07-01T08:45:28.268Z,101344.45
2018-07-01T08:47:56.300Z,101343.98
2018-07-01T08:50:24.305Z,101343.33
2018-07-01T08:52:52.436Z,101342.09
2018-07-01T08:55:20.401Z,101349.38
2018-07-01T08:57:48.466Z,101341.44
2018-07-01T09:00:16.553Z,101344.67
2018-07-01T09:02:44.572Z,101344.64
2018-07-01T09:05:12.618Z,101344.91
2018-07-01T09:07:40.767Z,101339.70
2018-07-01T09:10:08.793Z,101336.56
2018-07-01T09:12:37.045Z,101346.09
2018-07-01T09:15:05.822Z,101344.09
2018-07-01T09:17:33.884Z,101344.64
2018-07-01T09:20:01.931Z,101350.75
2018-07-01T09:22:29.967Z,101347.12
2018-07-01T09:24:58.037Z,101343.78
2018-07-01T09:27:26.069Z,101340.23
2018-07-01T09:30:00.619Z,101341.73
2018-07-01T09:32:28.985Z,101336.89
2018-07-01T09:34:57.038Z,101336.36
2018-07-01T09:37:25.068Z,101339.59
2018-07-01T09:39:53.286Z,101336.01
2018-07-01T09:42:21.277Z,101327.09
2018-07-01T09:44:49.284Z,101328.78
2018-07-01T09:47:17.293Z,101334.86
2018-07-01T09:49:45.335Z,101333.97
2018-07-01T09:52:13.373Z,101332.42
2018-07-01T09:54:41.439Z,101342.93
2018-07-01T09:57:09.477Z,101338.36
2018-07-01T09:59:37.524Z,101342.08
2018-07-01T10:02:05.678Z,101331.64
2018-07-01T10:04:33.708Z,101341.11
2018-07-01T10:07:01.752Z,101341.78
2018-07-01T10:09:30.812Z,101328.62
2018-07-01T10:11:58.957Z,101337.05
2018-07-01T10:14:26.912Z,101334.19
2018-07-01T10:16:54.969Z,101326.07
2018-07-01T10:19:22.993Z,101323.55
2018-07-01T10:21:51.074Z,101317.48
2018-07-01T10:24:19.105Z,101314.06
2018-07-01T10:26:47.210Z,101315.76
2018-07-01T10:29:15.646Z,101312.71
2018-07-01T10:31:44.637Z,101309.00
2018-07-01T10:34:13.429Z,101306.01
2018-07-01T10:36:41.445Z,101302.92
2018-07-01T10:39:14.033Z,101311.64
2018-07-01T10:41:42.042Z,101303.34
2018-07-01T10:44:10.088Z,101306.66
2018-07-01T10:46:38.089Z,101290.63
2018-07-01T10:49:06.355Z,101285.08
2018-07-01T10:51:34.639Z,101293.19
2018-07-01T10:54:02.806Z,101292.16
2018-07-01T10:56:30.887Z,101288.09
2018-07-01T10:58:58.897Z,101287.08
2018-07-01T11:01:27.133Z,101277.80
2018-07-01T11:03:55.474Z,101279.63
2018-07-01T11:06:23.534Z,101280.32
2018-07-01T11:08:51.582Z,101276.27
2018-07-01T11:11:19.669Z,101284.89
2018-07-01T11:13:47.693Z,101286.09
2018-07-01T11:16:16.860Z,101293.16
2018-07-01T11:18:44.936Z,101291.81
2018-07-01T11:21:12.992Z,101283.70
2018-07-01T11:23:41.372Z,101277.99
2018-07-01T11:26:09.389Z,101275.29
2018-07-01T11:28:37.504Z,101268.14
2018-07-01T11:31:05.724Z,101257.30
2018-07-01T11:33:33.761Z,101252.24
2018-07-01T11:36:01.770Z,101266.52
2018-07-01T11:38:29.893Z,101257.26
2018-07-01T11:40:57.968Z,101269.16
2018-07-01T11:43:26.029Z,101251.95
2018-07-01T11:45:54.092Z,101262.95
2018-07-01T11:48:22.112Z,101264.13
2018-07-01T11:50:50.330Z,101253.01
2018-07-01T11:53:18.404Z,101257.22
2018-07-01T11:55:46.439Z,101246.93
2018-07-01T11:58:14.493Z,101250.63
2018-07-01T12:00:42.565Z,101247.77
2018-07-01T12:03:10.612Z,101247.09
2018-07-01T12:05:38.689Z,101239.98
2018-07-01T12:08:06.742Z,101237.98
2018-07-01T12:10:34.828Z,101242.99
2018-07-01T12:13:02.868Z,101244.13
2018-07-01T12:15:30.903Z,101237.89
2018-07-01T12:17:58.998Z,101241.70
2018-07-01T12:20:27.025Z,101235.17
2018-07-01T12:22:55.116Z,101235.89
2018-07-01T12:25:23.144Z,101229.45
2018-07-01T12:27:51.197Z,101216.86
2018-07-01T12:30:19.242Z,101233.26
2018-07-01T12:32:47.255Z,101221.67
2018-07-01T12:35:15.264Z,101235.11
2018-07-01T12:37:43.416Z,101229.02
2018-07-01T12:40:11.437Z,101218.96
2018-07-01T12:42:39.456Z,101215.08
2018-07-01T12:45:07.598Z,101220.21
2018-07-01T12:47:35.649Z,101211.25
2018-07-01T12:50:03.593Z,101219.94
2018-07-01T12:52:31.638Z,101218.38
2018-07-01T12:54:59.650Z,101225.29
2018-07-01T12:57:27.679Z,101216.55
2018-07-01T12:59:55.664Z,101210.98
2018-07-01T13:02:23.808Z,101208.90
2018-07-01T13:04:51.872Z,101219.72
2018-07-01T13:07:19.869Z,101212.70
2018-07-01T13:09:47.848Z,101207.55
2018-07-01T13:12:15.959Z,101194.33
2018-07-01T13:14:44.064Z,101195.22
2018-07-01T13:17:12.114Z,101189.88
2018-07-01T13:19:40.176Z,101192.14
2018-07-01T13:22:08.204Z,101189.29
2018-07-01T13:24:36.258Z,101183.26
2018-07-01T13:27:04.439Z,101187.91
2018-07-01T13:29:32.623Z,101183.73
2018-07-01T13:32:00.600Z,101169.28
2018-07-01T13:34:28.628Z,101174.55
2018-07-01T13:36:56.637Z,101166.72
2018-07-01T13:39:24.733Z,101164.59
2018-07-01T13:41:52.732Z,101156.34
2018-07-01T13:44:20.801Z,101166.52
2018-07-01T13:46:48.863Z,101163.70
2018-07-01T13:49:16.941Z,101151.36
2018-07-01T13:51:44.911Z,101157.50
2018-07-01T13:54:13.000Z,101162.47
2018-07-01T13:56:41.074Z,101167.38
2018-07-01T13:59:09.125Z,101156.75
2018-07-01T14:01:37.173Z,101156.06
2018-07-01T14:04:05.500Z,101150.59
2018-07-01T14:06:33.583Z,101162.52
2018-07-01T14:09:01.585Z,101142.98
2018-07-01T14:11:29.596Z,101140.59
2018-07-01T14:13:57.622Z,101149.13
2018-07-01T14:16:25.628Z,101139.52
2018-07-01T14:18:53.652Z,101138.32
2018-07-01T14:21:21.692Z,101138.95
2018-07-01T14:23:49.739Z,101132.36
2018-07-01T14:26:18.889Z,101146.33
2018-07-01T14:28:46.958Z,101148.17
2018-07-01T14:31:16.025Z,101149.84
2018-07-01T14:33:44.063Z,101136.91
2018-07-01T14:36:12.097Z,101132.03
2018-07-01T14:38:40.149Z,101127.46
2018-07-01T14:41:08.201Z,101130.48
2018-07-01T14:43:36.265Z,101129.55
2018-07-01T14:46:04.353Z,101121.78
2018-07-01T14:48:32.416Z,101125.86
2018-07-01T14:51:00.476Z,101120.69
2018-07-01T14:53:28.556Z,101123.16
2018-07-01T14:55:56.576Z,101125.98
2018-07-01T14:58:24.614Z,101119.73
2018-07-01T15:00:52.817Z,101132.67
2018-07-01T15:03:20.891Z,101120.55
2018-07-01T15:05:48.896Z,101129.69
2018-07-01T15:08:16.967Z,101127.50
2018-07-01T15:10:44.985Z,101121.28
2018-07-01T15:13:13.301Z,101118.81
2018-07-01T15:15:41.559Z,101121.16
2018-07-01T15:18:09.604Z,101111.38
2018-07-01T15:20:37.716Z,101110.00
2018-07-01T15:23:05.856Z,101112.05
2018-07-01T15:25:34.192Z,101106.59
2018-07-01T15:28:02.540Z,101103.03
2018-07-01T15:30:30.536Z,101109.89
2018-07-01T15:32:58.568Z,101105.31
2018-07-01T15:35:26.589Z,101105.31
2018-07-01T15:37:54.748Z,101102.05
2018-07-01T15:40:22.834Z,101102.58
2018-07-01T15:42:50.964Z,101093.61
2018-07-01T15:45:19.040Z,101092.78
2018-07-01T15:47:47.092Z,101087.73
2018-07-01T15:50:15.685Z,101088.03
2018-07-01T15:52:43.841Z,101091.11
2018-07-01T15:55:11.873Z,101084.66
2018-07-01T15:57:39.949Z,101074.81
2018-07-01T16:00:08.389Z,101076.26
2018-07-01T16:02:36.493Z,101065.22
2018-07-01T16:05:05.057Z,101067.17
2018-07-01T16:07:33.080Z,101062.34
2018-07-01T16:10:01.072Z,101066.40
2018-07-01T16:12:29.084Z,101060.82
2018-07-01T16:14:57.082Z,101066.83
2018-07-01T16:17:25.129Z,101069.34
2018-07-01T16:19:53.133Z,101067.86
2018-07-01T16:22:21.152Z,101066.06
2018-07-01T16:24:54.504Z,101070.19
2018-07-01T16:27:27.992Z,101067.09
2018-07-01T16:29:55.981Z,101064.72
2018-07-01T16:32:23.965Z,101058.17
2018-07-01T16:34:51.999Z,101057.48
2018-07-01T16:39:59.704Z,101053.42
2018-07-01T16:42:27.900Z,101058.58
2018-07-01T16:44:55.945Z,101057.17
2018-07-01T16:47:24.249Z,101055.52
2018-07-01T16:49:52.457Z,101050.50
2018-07-01T16:52:20.489Z,101053.99
2018-07-01T16:54:48.488Z,101053.30
2018-07-01T16:57:16.518Z,101055.16
2018-07-01T16:59:44.610Z,101052.98
2018-07-01T17:02:12.610Z,101046.71
2018-07-01T17:04:40.800Z,101048.46
2018-07-01T17:07:08.925Z,101049.69
2018-07-01T17:09:36.964Z,101048.39
2018-07-01T17:12:05.120Z,101046.38
2018-07-01T17:14:33.121Z,101042.36
2018-07-01T17:17:01.129Z,101043.48
2018-07-01T17:19:29.174Z,101045.91
2018-07-01T17:21:57.205Z,101059.38
2018-07-01T17:24:25.240Z,101057.34
2018-07-01T17:26:53.428Z,101057.55
2018-07-01T17:29:21.507Z,101065.30
2018-07-01T17:31:54.945Z,101064.77
2018-07-01T17:34:22.973Z,101068.76
2018-07-01T17:36:51.100Z,101060.45
2018-07-01T17:39:19.119Z,101064.16
2018-07-01T17:41:47.458Z,101060.31
2018-07-01T17:44:15.490Z,101057.15
2018-07-01T17:46:43.524Z,101062.92
2018-07-01T17:49:11.619Z,101055.86
2018-07-01T17:51:39.639Z,101054.55
2018-07-01T17:54:07.860Z,101054.03
2018-07-01T17:56:35.894Z,101062.80
2018-07-01T17:59:03.933Z,101060.30
2018-07-01T18:01:31.948Z,101063.32
2018-07-01T18:03:59.955Z,101061.30
2018-07-01T18:06:28.542Z,101061.52
2018-07-01T18:08:56.540Z,101060.36
2018-07-01T18:11:24.593Z,101055.16
2018-07-01T18:13:52.604Z,101059.52
2018-07-01T18:16:20.703Z,101055.83
2018-07-01T18:18:48.676Z,101056.86
2018-07-01T18:21:20.514Z,101060.88
2018-07-01T18:24:11.117Z,101061.06
2018-07-01T18:26:12.812Z,101060.02
2018-07-01T18:28:52.289Z,101061.06
2018-07-01T18:31:09.840Z,101062.40
2018-07-01T18:33:37.945Z,101068.64
2018-07-01T18:36:05.980Z,101063.06
2018-07-01T18:38:33.991Z,101065.78
2018-07-01T18:41:01.977Z,101063.06
2018-07-01T18:43:29.968Z,101065.95
2018-07-01T18:45:57.988Z,101059.56
2018-07-01T18:48:26.103Z,101066.45
2018-07-01T18:50:54.286Z,101058.04
2018-07-01T18:53:22.339Z,101059.73
2018-07-01T18:55:50.349Z,101065.96
2018-07-01T18:58:18.411Z,101060.74
2018-07-01T19:00:46.437Z,101065.12
2018-07-01T19:03:14.647Z,101063.59
2018-07-01T19:05:42.653Z,101068.16
2018-07-01T19:08:10.676Z,101065.27
2018-07-01T19:10:38.692Z,101069.84
2018-07-01T19:13:06.770Z,101071.50
2018-07-01T19:15:34.828Z,101072.28
2018-07-01T19:18:02.983Z,101075.96
2018-07-01T19:20:31.079Z,101072.76
2018-07-01T19:22:59.114Z,101076.80
2018-07-01T19:25:27.169Z,101077.38
2018-07-01T19:27:55.358Z,101079.03
2018-07-01T19:30:23.348Z,101078.40
2018-07-01T19:32:51.352Z,101073.70
2018-07-01T19:35:19.402Z,101082.08
2018-07-01T19:37:47.420Z,101093.37
2018-07-01T19:40:15.409Z,101087.08
2018-07-01T19:42:43.614Z,101090.66
2018-07-01T19:45:11.541Z,101091.64
2018-07-01T19:47:39.660Z,101090.80
2018-07-01T19:50:07.896Z,101091.37
2018-07-01T19:52:36.123Z,101098.05
2018-07-01T19:55:04.244Z,101098.91
2018-07-01T19:57:32.261Z,101106.09
2018-07-01T20:00:00.259Z,101108.14
2018-07-01T20:02:28.261Z,101106.38
2018-07-01T20:04:56.284Z,101105.41
2018-07-01T20:07:24.306Z,101108.28
2018-07-01T20:09:52.340Z,101108.92
2018-07-01T20:12:20.344Z,101105.50
2018-07-01T20:14:48.345Z,101106.44
2018-07-01T20:17:16.380Z,101108.42
2018-07-01T20:19:44.481Z,101110.70
2018-07-01T20:22:12.484Z,101112.91
2018-07-01T20:24:40.524Z,101113.31
2018-07-01T20:27:08.540Z,101115.59
2018-07-01T20:29:36.528Z,101117.23
2018-07-01T20:32:04.573Z,101106.53
2018-07-01T20:34:32.563Z,101114.14
2018-07-01T20:37:00.589Z,101112.30
2018-07-01T20:39:28.625Z,101110.42
2018-07-01T20:41:56.713Z,101111.98
2018-07-01T20:44:24.728Z,101115.57
2018-07-01T20:46:52.733Z,101112.97
2018-07-01T20:49:20.765Z,101111.76
2018-07-01T20:51:48.784Z,101112.05
2018-07-01T20:54:16.997Z,101110.48
2018-07-01T20:56:45.041Z,101118.87
2018-07-01T20:59:13.107Z,101109.70
2018-07-01T21:01:41.172Z,101117.69
2018-07-01T21:04:09.193Z,101119.56
2018-07-01T21:06:37.196Z,101124.47
2018-07-01T21:09:07.656Z,101123.33
2018-07-01T21:11:35.737Z,101127.41
2018-07-01T21:16:26.732Z,101135.81
2018-07-01T21:18:54.724Z,101137.34
2018-07-01T21:21:22.725Z,101136.90
2018-07-01T21:23:50.749Z,101146.27
2018-07-01T21:26:18.769Z,101147.05
2018-07-01T21:28:46.853Z,101151.96
2018-07-01T21:31:14.929Z,101145.38
2018-07-01T21:33:42.927Z,101148.80
2018-07-01T21:36:10.927Z,101154.92
2018-07-01T21:38:39.501Z,101158.48
2018-07-01T21:41:07.536Z,101150.85
2018-07-01T21:43:35.554Z,101149.05
2018-07-01T21:46:03.595Z,101151.66
2018-07-01T21:48:31.612Z,101152.87
2018-07-01T21:50:59.634Z,101149.83
2018-07-01T21:53:27.629Z,101147.20
2018-07-01T21:55:55.622Z,101155.13
2018-07-01T21:58:23.588Z,101151.53
2018-07-01T22:00:51.593Z,101152.61
2018-07-01T22:03:19.616Z,101146.11
2018-07-01T22:05:47.629Z,101153.77
2018-07-01T22:08:15.829Z,101145.53
2018-07-01T22:10:55.649Z,101148.95
2018-07-01T22:14:37.448Z,101146.63
2018-07-01T22:17:07.365Z,101151.64
2018-07-01T22:19:35.631Z,101153.15
2018-07-01T22:22:03.804Z,101149.02
2018-07-01T22:24:33.010Z,101154.36
2018-07-01T22:27:01.062Z,101156.54
2018-07-01T22:29:29.056Z,101164.45
2018-07-01T22:31:57.316Z,101167.23
2018-07-01T22:34:25.390Z,101167.11
2018-07-01T22:36:53.950Z,101158.53
2018-07-01T22:39:26.606Z,101160.93
2018-07-01T22:41:55.536Z,101162.39
2018-07-01T22:44:23.742Z,101166.89
2018-07-01T22:46:52.453Z,101163.62
2018-07-01T22:49:20.448Z,101165.81
2018-07-01T22:51:48.437Z,101162.63
2018-07-01T22:54:16.504Z,101166.67
2018-07-01T22:56:44.504Z,101158.75
2018-07-01T22:59:12.568Z,101161.42
2018-07-01T23:02:58.048Z,101158.03
2018-07-01T23:05:26.080Z,101158.29
2018-07-01T23:07:54.095Z,101155.00
2018-07-01T23:10:23.395Z,101156.23
2018-07-01T23:12:52.384Z,101163.23
2018-07-01T23:15:20.578Z,101152.33
2018-07-01T23:17:48.577Z,101153.67
2018-07-01T23:20:16.633Z,101156.83
2018-07-01T23:22:44.624Z,101154.12
2018-07-01T23:25:13.394Z,101157.42
2018-07-01T23:27:41.837Z,101160.09
2018-07-01T23:30:09.842Z,101155.00
2018-07-01T23:32:37.856Z,101157.15
2018-07-01T23:35:06.165Z,101160.06
2018-07-01T23:37:34.260Z,101156.16
2018-07-01T23:40:02.268Z,101152.55
2018-07-01T23:42:30.269Z,101158.34
2018-07-01T23:44:58.325Z,101154.94
2018-07-01T23:47:26.361Z,101160.05
2018-07-01T23:49:54.368Z,101154.18
2018-07-01T23:52:22.384Z,101158.42
2018-07-01T23:54:50.416Z,101150.53
2018-07-01T23:57:18.480Z,101161.09
2018-07-01T23:59:46.485Z,101153.59
